SBSN/STM METAR and TAF weather

Enter ICAO airport designator
Station Type Date Time Source
SBSN METAR 2019/02/22 22:00 UTC NOAA

SBSN 222200Z 10003KT 9999 FEW025TCU 28/24 Q1009


Station Type Date Time Source
SBSN Decoded METAR 2019/02/22 22:00 UTC NOAA

Santarem-Aeroporto, Brazil (SBSN) 02-26S 054-43W 72M
Feb 22, 2019 - 05:00 PM EST / 2019.02.22 2200 UTC
Wind: from the E (100 degrees) at 3 MPH (3 KT):0
Visibility: greater than 7 mile(s):0
Sky conditions: mostly clear
Weather: Towering cumulus clouds observed
Temperature: 82 F (28 C)
Dew Point: 75 F (24 C)
Relative Humidity: 78%
Pressure (altimeter): 29.80 in. Hg (1009 hPa)
ob: SBSN 222200Z 10003KT 9999 FEW025TCU 28/24 Q1009
cycle: 22

Station Type Date Time Source
SBSN TAF 2019/02/22 18:39 UTC NOAA

TAF SBSN 221600Z 2218/2318 05010KT 9999 SCT015 TN26/2308Z TX32/2316Z
BECMG 2223/2301 07010KT
BECMG 2305/2307 35005KT
BECMG 2309/2311 07010KT BE CMG 2315/2317 12010KT
RMK PDY


Example: see airport list